createdAt,value
2022-12-07T00:01:52.450Z,9.53
2022-12-07T00:04:21.457Z,8.87
2022-12-07T00:06:54.572Z,9.53
2022-12-07T00:09:23.954Z,9.73
2022-12-07T00:11:53.947Z,9.53
2022-12-07T00:14:24.548Z,10.20
2022-12-07T00:16:54.755Z,9.90
2022-12-07T00:19:23.750Z,19.77
2022-12-07T00:21:52.933Z,16.60
2022-12-07T00:24:22.399Z,17.87
2022-12-07T00:26:51.475Z,14.70
2022-12-07T00:29:22.900Z,14.83
2022-12-07T00:31:53.517Z,20.37
2022-12-07T00:34:23.880Z,15.13
2022-12-07T00:36:53.080Z,23.03
2022-12-07T00:39:22.250Z,15.37
2022-12-07T00:41:51.267Z,18.97
2022-12-07T00:44:20.292Z,34.93
2022-12-07T00:46:49.242Z,42.37
2022-12-07T00:49:19.812Z,26.67
2022-12-07T00:51:51.441Z,15.77
2022-12-07T00:54:20.553Z,13.80
2022-12-07T00:56:49.551Z,11.70
2022-12-07T00:59:18.670Z,11.90
2022-12-07T01:01:47.878Z,17.23
2022-12-07T01:04:18.519Z,11.80
2022-12-07T01:06:47.650Z,10.83
2022-12-07T01:09:16.769Z,9.00
2022-12-07T01:11:45.732Z,8.63
2022-12-07T01:14:14.877Z,9.33
2022-12-07T01:16:43.972Z,8.90
2022-12-07T01:19:13.108Z,8.60
2022-12-07T01:21:43.660Z,9.23
2022-12-07T01:24:13.941Z,8.43
2022-12-07T01:26:43.171Z,8.43
2022-12-07T01:29:12.389Z,8.13
2022-12-07T01:31:41.448Z,8.20
2022-12-07T01:34:11.241Z,7.63
2022-12-07T01:36:40.384Z,7.83
2022-12-07T01:39:12.478Z,7.43
2022-12-07T01:41:44.773Z,7.50
2022-12-07T01:44:17.823Z,7.40
2022-12-07T01:46:48.452Z,6.67
2022-12-07T01:49:22.452Z,7.30
2022-12-07T01:51:54.232Z,6.90
2022-12-07T01:54:25.176Z,6.47
2022-12-07T01:56:57.604Z,6.47
2022-12-07T01:59:28.403Z,6.23
2022-12-07T02:01:58.512Z,6.23
2022-12-07T02:04:28.032Z,6.10
2022-12-07T02:06:58.481Z,6.07
2022-12-07T02:09:29.070Z,6.20
2022-12-07T02:11:58.716Z,6.20
2022-12-07T02:14:27.727Z,6.13
2022-12-07T02:17:10.266Z,6.50
2022-12-07T02:20:17.354Z,6.73
2022-12-07T02:23:16.253Z,6.27
2022-12-07T02:26:05.362Z,6.10
2022-12-07T02:28:37.342Z,6.73
2022-12-07T02:31:14.428Z,6.77
2022-12-07T02:33:47.954Z,7.53
2022-12-07T02:36:22.474Z,6.97
2022-12-07T02:38:58.431Z,7.20
2022-12-07T02:41:30.691Z,7.23
2022-12-07T02:44:03.058Z,6.33
2022-12-07T02:46:38.473Z,7.23
2022-12-07T02:49:09.604Z,6.30
2022-12-07T02:51:43.666Z,6.03
2022-12-07T02:54:15.275Z,6.50
2022-12-07T02:56:51.341Z,6.77
2022-12-07T02:59:32.122Z,6.63
2022-12-07T03:02:13.321Z,6.50
2022-12-07T03:04:50.692Z,6.63
2022-12-07T03:07:31.579Z,6.53
2022-12-07T03:10:06.196Z,7.00
2022-12-07T03:12:41.409Z,7.03
2022-12-07T03:15:15.236Z,7.10
2022-12-07T03:17:48.747Z,7.07
2022-12-07T03:20:23.650Z,7.73
2022-12-07T03:22:55.236Z,6.80
2022-12-07T03:25:24.723Z,6.87
2022-12-07T03:27:57.996Z,7.60
2022-12-07T03:30:32.296Z,7.70
2022-12-07T03:33:08.831Z,7.73
2022-12-07T03:35:41.918Z,7.87
2022-12-07T03:38:18.199Z,7.63
2022-12-07T03:40:53.199Z,7.40
2022-12-07T03:43:23.753Z,8.10
2022-12-07T03:46:00.875Z,7.73
2022-12-07T03:48:38.406Z,7.83
2022-12-07T03:51:16.033Z,8.17
2022-12-07T03:53:51.245Z,7.70
2022-12-07T03:56:21.018Z,8.40
2022-12-07T03:58:51.149Z,8.40
2022-12-07T04:01:21.131Z,7.10
2022-12-07T04:03:51.772Z,6.67
2022-12-07T04:06:21.057Z,7.60
2022-12-07T04:08:50.210Z,7.73
2022-12-07T04:11:19.314Z,7.33
2022-12-07T04:14:05.460Z,7.20
2022-12-07T04:16:37.367Z,7.47
2022-12-07T04:19:11.587Z,7.57
2022-12-07T04:21:40.846Z,7.90
2022-12-07T04:24:10.023Z,7.60
2022-12-07T04:26:39.115Z,7.97
2022-12-07T04:29:08.235Z,7.67
2022-12-07T04:31:38.309Z,7.37
2022-12-07T04:34:07.861Z,7.00
2022-12-07T04:36:38.624Z,7.03
2022-12-07T04:39:09.471Z,6.90
2022-12-07T04:41:38.490Z,8.57
2022-12-07T04:44:08.767Z,7.63
2022-12-07T04:46:38.121Z,6.90
2022-12-07T04:49:07.131Z,7.60
2022-12-07T04:51:37.698Z,8.27
2022-12-07T04:54:07.532Z,9.17
2022-12-07T04:56:37.072Z,9.10
2022-12-07T04:59:06.780Z,7.53
2022-12-07T05:01:36.093Z,8.17
2022-12-07T05:04:05.801Z,6.97
2022-12-07T05:06:34.894Z,6.93
2022-12-07T05:09:06.114Z,7.00
2022-12-07T05:11:41.036Z,6.70
2022-12-07T05:14:13.514Z,5.90
2022-12-07T05:16:43.358Z,6.97
2022-12-07T05:19:13.380Z,6.57
2022-12-07T05:21:43.026Z,7.13
2022-12-07T05:24:16.204Z,7.63
2022-12-07T05:26:45.438Z,7.03
2022-12-07T05:29:15.390Z,6.20
2022-12-07T05:31:44.559Z,6.50
2022-12-07T05:34:13.876Z,6.60
2022-12-07T05:36:43.483Z,6.10
2022-12-07T05:39:14.317Z,6.40
2022-12-07T05:42:00.529Z,8.33
2022-12-07T05:44:29.774Z,5.90
2022-12-07T05:46:58.785Z,6.23
2022-12-07T05:49:27.966Z,6.10
2022-12-07T05:51:57.214Z,7.20
2022-12-07T05:54:27.780Z,8.20
2022-12-07T05:56:57.109Z,5.77
2022-12-07T05:59:25.624Z,8.13
2022-12-07T06:01:56.567Z,5.47
2022-12-07T06:04:27.232Z,5.50
2022-12-07T06:06:56.360Z,6.03
2022-12-07T06:09:28.848Z,6.10
2022-12-07T06:12:15.920Z,6.30
2022-12-07T06:14:45.241Z,5.87
2022-12-07T06:17:15.095Z,6.60
2022-12-07T06:19:44.223Z,6.20
2022-12-07T06:22:14.259Z,6.23
2022-12-07T06:24:45.078Z,7.37
2022-12-07T06:27:14.255Z,7.23
2022-12-07T06:29:43.358Z,6.63
2022-12-07T06:32:12.989Z,6.17
2022-12-07T06:34:42.236Z,7.13
2022-12-07T06:37:11.654Z,5.77
2022-12-07T06:39:40.738Z,6.67
2022-12-07T06:42:11.340Z,6.37
2022-12-07T06:44:40.394Z,8.23
2022-12-07T06:47:39.433Z,7.73
2022-12-07T06:49:59.856Z,7.63
2022-12-07T06:52:29.058Z,13.23
2022-12-07T06:54:58.131Z,8.33
2022-12-07T06:57:28.722Z,7.17
2022-12-07T06:59:57.771Z,10.57
2022-12-07T07:02:26.926Z,8.77
2022-12-07T07:04:56.192Z,7.23
2022-12-07T07:07:25.145Z,9.43
2022-12-07T07:09:54.290Z,9.70
2022-12-07T07:12:23.502Z,7.30
2022-12-07T07:14:54.153Z,9.03
2022-12-07T07:17:23.920Z,7.20
2022-12-07T07:19:53.068Z,7.50
2022-12-07T07:22:22.225Z,8.60
2022-12-07T07:24:51.363Z,9.73
2022-12-07T07:27:20.613Z,7.97
2022-12-07T07:29:49.636Z,8.93
2022-12-07T07:32:20.710Z,9.77
2022-12-07T07:34:49.884Z,7.10
2022-12-07T07:37:22.087Z,9.77
2022-12-07T07:39:51.459Z,9.90
2022-12-07T07:42:23.031Z,7.83
2022-12-07T07:44:55.098Z,8.23
2022-12-07T07:47:30.933Z,7.73
2022-12-07T07:50:04.684Z,7.87
2022-12-07T07:52:35.341Z,8.93
2022-12-07T07:55:06.215Z,9.77
2022-12-07T07:57:38.871Z,11.17
2022-12-07T08:00:14.751Z,7.33
2022-12-07T08:02:47.799Z,6.90
2022-12-07T08:06:03.116Z,10.97
2022-12-07T08:08:32.259Z,8.47
2022-12-07T08:11:02.658Z,9.40
2022-12-07T08:13:32.041Z,7.37
2022-12-07T08:16:05.801Z,7.37
2022-12-07T08:18:38.448Z,8.93
2022-12-07T08:21:09.032Z,6.77
2022-12-07T08:23:40.054Z,7.73
2022-12-07T08:26:11.593Z,7.37
2022-12-07T08:28:40.864Z,10.40
2022-12-07T08:31:13.045Z,6.93
2022-12-07T08:33:44.152Z,7.47
2022-12-07T08:36:17.001Z,10.23
2022-12-07T08:39:07.995Z,7.17
2022-12-07T08:41:35.871Z,7.10
2022-12-07T08:44:04.992Z,10.60
2022-12-07T08:46:39.143Z,7.50
2022-12-07T08:49:15.138Z,7.00
2022-12-07T08:51:44.964Z,8.60
2022-12-07T08:54:16.866Z,5.90
2022-12-07T08:56:47.204Z,6.07
2022-12-07T08:59:19.187Z,5.90
2022-12-07T09:01:48.360Z,6.63
2022-12-07T09:04:18.869Z,7.50
2022-12-07T09:06:48.061Z,7.67
2022-12-07T09:09:17.735Z,5.93
2022-12-07T09:11:47.436Z,7.03
2022-12-07T09:14:16.766Z,6.57
2022-12-07T09:16:45.736Z,9.83
2022-12-07T09:19:15.168Z,7.33
2022-12-07T09:21:45.955Z,8.20
2022-12-07T09:24:15.291Z,5.30
2022-12-07T09:26:45.611Z,5.67
2022-12-07T09:29:14.651Z,5.50
2022-12-07T09:31:44.062Z,5.63
2022-12-07T09:34:13.303Z,5.40
2022-12-07T09:36:43.555Z,7.23
2022-12-07T09:39:14.251Z,5.20
2022-12-07T09:41:46.826Z,5.17
2022-12-07T09:44:19.958Z,5.23
2022-12-07T09:46:49.364Z,6.13
2022-12-07T09:49:21.777Z,6.47
2022-12-07T09:52:01.704Z,4.93
2022-12-07T09:54:33.446Z,4.37
2022-12-07T09:57:03.291Z,4.50
2022-12-07T09:59:36.552Z,3.80
2022-12-07T10:02:27.664Z,5.30
2022-12-07T10:04:57.893Z,4.00
2022-12-07T10:07:27.212Z,4.20
2022-12-07T10:09:57.962Z,5.67
2022-12-07T10:12:27.262Z,4.10
2022-12-07T10:15:07.209Z,3.37
2022-12-07T10:17:42.133Z,3.50
2022-12-07T10:20:19.049Z,4.10
2022-12-07T10:23:00.471Z,3.23
2022-12-07T10:25:34.636Z,4.13
2022-12-07T10:28:13.214Z,3.37
2022-12-07T10:31:00.550Z,2.73
2022-12-07T10:33:35.764Z,3.43
2022-12-07T10:36:20.401Z,4.13
2022-12-07T10:38:51.371Z,3.93
2022-12-07T10:41:22.491Z,4.10
2022-12-07T10:43:56.183Z,4.03
2022-12-07T10:46:41.940Z,3.90
2022-12-07T10:49:32.805Z,5.20
2022-12-07T10:52:09.949Z,4.77
2022-12-07T10:54:48.251Z,3.13
2022-12-07T10:57:36.951Z,3.00
2022-12-07T11:00:15.499Z,5.03
2022-12-07T11:03:08.349Z,4.60
2022-12-07T11:05:46.920Z,5.47
2022-12-07T11:08:27.818Z,3.17
2022-12-07T11:11:04.797Z,3.90
2022-12-07T11:13:50.016Z,4.23
2022-12-07T11:16:35.293Z,6.73
2022-12-07T11:19:28.549Z,3.17
2022-12-07T11:22:04.610Z,2.80
2022-12-07T11:24:44.823Z,3.10
2022-12-07T11:27:27.128Z,3.13
2022-12-07T11:30:12.081Z,3.73
2022-12-07T11:33:04.000Z,3.23
2022-12-07T11:35:47.119Z,3.40
2022-12-07T11:38:22.219Z,3.07
2022-12-07T11:41:14.726Z,4.20
2022-12-07T11:43:57.394Z,3.43
2022-12-07T11:46:32.435Z,3.70
2022-12-07T11:49:06.345Z,5.07
2022-12-07T11:51:40.458Z,3.40
2022-12-07T11:54:18.308Z,3.10
2022-12-07T11:56:51.274Z,3.40
2022-12-07T11:59:25.463Z,3.30
2022-12-07T12:02:02.058Z,4.30
2022-12-07T12:04:42.917Z,3.83
2022-12-07T12:10:17.351Z,2.72
2022-12-07T12:16:24.435Z,4.03
2022-12-07T12:19:20.774Z,3.20
2022-12-07T12:21:54.242Z,3.30
2022-12-07T12:24:29.582Z,3.17
2022-12-07T12:27:06.194Z,3.97
2022-12-07T12:29:37.565Z,9.93
2022-12-07T12:32:19.214Z,5.60
2022-12-07T12:35:22.196Z,7.70
2022-12-07T12:37:57.252Z,4.45
2022-12-07T12:40:50.776Z,6.07
2022-12-07T12:43:45.537Z,8.18
2022-12-07T12:46:45.202Z,9.60
2022-12-07T12:49:47.325Z,7.45
2022-12-07T12:53:06.337Z,6.20
2022-12-07T12:56:12.221Z,7.28
2022-12-07T12:58:47.025Z,7.15
2022-12-07T13:01:45.016Z,9.90
2022-12-07T13:04:51.608Z,6.40
2022-12-07T13:08:06.306Z,4.75
2022-12-07T13:10:44.044Z,4.53
2022-12-07T13:13:33.214Z,4.10
2022-12-07T13:16:45.267Z,5.80
2022-12-07T13:20:03.872Z,7.80
2022-12-07T13:22:58.256Z,3.35
2022-12-07T13:25:49.231Z,3.58
2022-12-07T13:28:23.700Z,4.43
2022-12-07T13:31:13.065Z,3.53
2022-12-07T13:33:49.103Z,8.25
2022-12-07T13:36:26.451Z,6.93
2022-12-07T13:39:00.465Z,4.13
2022-12-07T13:41:33.160Z,3.78
2022-12-07T13:44:06.248Z,5.28
2022-12-07T13:46:52.896Z,4.88
2022-12-07T13:49:28.651Z,3.90
2022-12-07T13:52:18.537Z,4.22
2022-12-07T13:54:53.933Z,5.93
2022-12-07T13:57:25.045Z,5.60
2022-12-07T13:59:57.206Z,3.72
2022-12-07T14:02:34.850Z,3.88
2022-12-07T14:05:17.683Z,4.05
2022-12-07T14:07:59.279Z,4.05
2022-12-07T14:10:33.396Z,4.57
2022-12-07T14:13:07.748Z,4.32
2022-12-07T14:15:40.148Z,5.07
2022-12-07T14:18:32.018Z,6.80
2022-12-07T14:21:19.996Z,5.15
2022-12-07T14:24:14.721Z,6.95
2022-12-07T14:26:49.051Z,5.18
2022-12-07T14:29:36.541Z,5.93
2022-12-07T14:32:32.750Z,5.65
2022-12-07T14:35:08.554Z,4.93
2022-12-07T14:37:41.625Z,4.72
2022-12-07T14:40:16.310Z,9.52
2022-12-07T14:42:47.913Z,8.50
2022-12-07T14:45:19.064Z,4.97
2022-12-07T14:53:34.298Z,5.30
2022-12-07T14:56:03.479Z,7.25
2022-12-07T14:58:32.490Z,10.90
2022-12-07T15:01:02.029Z,8.13
2022-12-07T15:03:31.498Z,8.53
2022-12-07T15:06:02.104Z,9.00
2022-12-07T15:08:32.789Z,9.20
2022-12-07T15:11:02.192Z,9.50
2022-12-07T15:13:48.643Z,9.60
2022-12-07T15:16:22.359Z,7.63
2022-12-07T15:19:19.390Z,9.57
2022-12-07T15:21:41.160Z,10.63
2022-12-07T15:24:13.249Z,10.50
2022-12-07T15:26:43.084Z,10.67
2022-12-07T15:29:15.923Z,12.73
2022-12-07T15:31:58.408Z,12.40
2022-12-07T15:34:37.871Z,11.47
2022-12-07T15:37:09.390Z,10.60
2022-12-07T15:39:40.904Z,13.27
2022-12-07T15:42:10.365Z,11.17
2022-12-07T15:44:56.721Z,13.00
2022-12-07T15:47:25.909Z,25.03
2022-12-07T15:49:57.250Z,22.13
2022-12-07T15:52:26.499Z,17.77
2022-12-07T15:54:57.756Z,26.40
2022-12-07T15:57:26.942Z,19.03
2022-12-07T15:59:56.068Z,25.47
2022-12-07T16:02:25.306Z,42.47
2022-12-07T16:04:54.704Z,29.50
2022-12-07T16:07:23.845Z,24.13
2022-12-07T16:09:52.988Z,24.07
2022-12-07T16:12:23.717Z,17.23
2022-12-07T16:14:52.886Z,22.23
2022-12-07T16:17:21.938Z,24.47
2022-12-07T16:19:51.100Z,20.17
2022-12-07T16:22:20.133Z,23.40
2022-12-07T16:24:49.370Z,20.20
2022-12-07T16:27:18.512Z,35.27
2022-12-07T16:29:49.153Z,26.27
2022-12-07T16:32:19.928Z,27.80
2022-12-07T16:34:49.553Z,28.23
2022-12-07T16:37:18.649Z,28.37
2022-12-07T16:39:47.907Z,25.30
2022-12-07T16:42:17.009Z,22.57
2022-12-07T16:44:47.679Z,23.23
2022-12-07T16:47:17.104Z,33.90
2022-12-07T16:49:46.613Z,36.67
2022-12-07T16:52:20.462Z,27.10
2022-12-07T16:54:51.135Z,27.50
2022-12-07T16:57:23.459Z,25.20
2022-12-07T16:59:54.985Z,20.43
2022-12-07T17:02:24.193Z,20.43
2022-12-07T17:04:53.901Z,17.30
2022-12-07T17:07:23.205Z,17.37
2022-12-07T17:09:52.339Z,16.33
2022-12-07T17:12:21.606Z,18.43
2022-12-07T17:15:04.642Z,37.67
2022-12-07T17:17:35.527Z,36.33
2022-12-07T17:20:05.141Z,23.60
2022-12-07T17:22:34.335Z,21.73
2022-12-07T17:25:03.718Z,19.27
2022-12-07T17:27:33.241Z,15.47
2022-12-07T17:30:02.533Z,17.83
2022-12-07T17:32:31.921Z,15.33
2022-12-07T17:35:02.747Z,17.37
2022-12-07T17:37:33.423Z,21.40
2022-12-07T17:40:02.612Z,22.30
2022-12-07T17:42:41.617Z,21.13
2022-12-07T17:45:12.568Z,21.33
2022-12-07T17:47:42.151Z,23.23
2022-12-07T17:50:13.089Z,24.50
2022-12-07T17:53:00.431Z,25.80
2022-12-07T17:55:29.651Z,21.67
2022-12-07T17:57:58.782Z,22.40
2022-12-07T18:00:27.908Z,23.93
2022-12-07T18:02:57.129Z,27.33
2022-12-07T18:05:27.784Z,25.63
2022-12-07T18:07:56.980Z,23.33
2022-12-07T18:10:26.126Z,19.87
2022-12-07T18:13:15.618Z,17.70
2022-12-07T18:15:44.834Z,15.50
2022-12-07T18:18:13.897Z,14.50
2022-12-07T18:20:44.734Z,14.53
2022-12-07T18:23:14.596Z,15.10
2022-12-07T18:25:48.224Z,14.20
2022-12-07T18:28:17.684Z,17.20
2022-12-07T18:31:14.214Z,16.00
2022-12-07T18:33:40.757Z,16.30
2022-12-07T18:36:12.410Z,21.00
2022-12-07T18:38:42.561Z,18.53
2022-12-07T18:41:13.802Z,19.50
2022-12-07T18:43:43.067Z,23.90
2022-12-07T18:46:13.717Z,25.03
2022-12-07T18:48:43.135Z,23.77
2022-12-07T18:51:15.806Z,20.10
2022-12-07T18:53:45.441Z,24.70
2022-12-07T18:56:16.547Z,25.23
2022-12-07T18:59:00.678Z,26.43
2022-12-07T19:01:30.523Z,27.73
2022-12-07T19:03:59.727Z,36.40
2022-12-07T19:06:30.560Z,48.47
2022-12-07T19:08:59.759Z,33.43
2022-12-07T19:11:48.140Z,29.00
2022-12-07T19:14:18.915Z,23.77
2022-12-07T19:16:50.828Z,20.47
2022-12-07T19:19:21.537Z,22.27
2022-12-07T19:21:52.174Z,21.23
2022-12-07T19:24:23.674Z,22.00
2022-12-07T19:26:53.304Z,23.20
2022-12-07T19:29:22.668Z,21.20
2022-12-07T19:31:51.831Z,23.70
2022-12-07T19:34:21.121Z,59.23
2022-12-07T19:36:51.644Z,53.37
2022-12-07T19:39:21.344Z,35.50
2022-12-07T19:41:50.435Z,25.63
2022-12-07T19:44:22.204Z,25.27
2022-12-07T19:46:51.866Z,26.60
2022-12-07T19:49:21.619Z,32.37
2022-12-07T19:51:54.709Z,28.93
2022-12-07T19:54:26.469Z,32.20
2022-12-07T19:56:56.428Z,36.83
2022-12-07T19:59:27.515Z,35.63
2022-12-07T20:01:57.410Z,32.03
2022-12-07T20:04:28.289Z,31.03
2022-12-07T20:07:01.256Z,34.43
2022-12-07T20:09:30.464Z,45.20
2022-12-07T20:12:16.781Z,52.77
2022-12-07T20:14:45.957Z,42.17
2022-12-07T20:17:15.109Z,29.87
2022-12-07T20:19:44.348Z,23.37
2022-12-07T20:22:14.882Z,17.23
2022-12-07T20:24:44.033Z,15.50
2022-12-07T20:27:13.206Z,16.37
2022-12-07T20:29:42.310Z,20.23
2022-12-07T20:32:14.376Z,18.57
2022-12-07T20:34:44.771Z,16.63
2022-12-07T20:37:15.414Z,13.57
2022-12-07T20:39:44.518Z,10.57
2022-12-07T20:42:31.208Z,12.47
2022-12-07T20:45:03.396Z,10.10
2022-12-07T20:47:33.481Z,10.13
2022-12-07T20:50:02.578Z,10.10
2022-12-07T20:52:33.587Z,11.53
2022-12-07T20:55:03.100Z,10.83
2022-12-07T20:57:32.233Z,9.37
2022-12-07T21:00:01.469Z,9.63
2022-12-07T21:02:30.563Z,9.90
2022-12-07T21:04:59.621Z,8.77
2022-12-07T21:07:28.744Z,8.63
2022-12-07T21:09:59.336Z,10.93
2022-12-07T21:12:30.591Z,10.80
2022-12-07T21:14:59.664Z,12.97
2022-12-07T21:17:28.715Z,12.87
2022-12-07T21:19:57.843Z,12.23
2022-12-07T21:22:26.939Z,13.27
2022-12-07T21:24:56.067Z,11.30
2022-12-07T21:27:26.563Z,10.63
2022-12-07T21:29:55.631Z,9.90
2022-12-07T21:32:24.872Z,10.63
2022-12-07T21:34:54.011Z,11.10
2022-12-07T21:37:23.116Z,11.93
2022-12-07T21:39:52.150Z,10.10
2022-12-07T21:42:21.339Z,10.20
2022-12-07T21:44:51.873Z,10.23
2022-12-07T21:47:21.077Z,10.83
2022-12-07T21:49:50.134Z,12.67
2022-12-07T21:52:19.217Z,14.17
2022-12-07T21:54:49.613Z,15.07
2022-12-07T21:57:18.816Z,36.33
2022-12-07T21:59:47.771Z,26.53
2022-12-07T22:02:18.429Z,28.80
2022-12-07T22:04:47.668Z,18.37
2022-12-07T22:07:16.942Z,14.37
2022-12-07T22:09:46.193Z,14.33
2022-12-07T22:12:15.446Z,17.80
2022-12-07T22:15:01.764Z,19.20
2022-12-07T22:17:32.562Z,19.20
2022-12-07T22:20:01.622Z,15.67
2022-12-07T22:22:30.704Z,15.87
2022-12-07T22:24:59.869Z,16.17
2022-12-07T22:27:28.944Z,13.53
2022-12-07T22:29:58.045Z,13.07
2022-12-07T22:35:17.837Z,12.73
2022-12-07T22:37:46.880Z,12.80
2022-12-07T22:40:16.635Z,12.37
2022-12-07T22:42:45.830Z,13.63
2022-12-07T22:45:14.851Z,11.90
2022-12-07T22:47:43.925Z,12.47
2022-12-07T22:50:13.282Z,12.50
2022-12-07T22:52:44.117Z,11.57
2022-12-07T22:55:13.224Z,11.93
2022-12-07T22:57:42.186Z,11.53
2022-12-07T23:00:12.329Z,10.77
2022-12-07T23:02:41.532Z,10.77
2022-12-07T23:05:11.297Z,11.07
2022-12-07T23:07:40.699Z,11.20
2022-12-07T23:10:12.550Z,13.37
2022-12-07T23:12:58.806Z,11.70
2022-12-07T23:15:28.021Z,10.97
2022-12-07T23:17:57.153Z,10.67
2022-12-07T23:20:28.989Z,10.50
2022-12-07T23:22:58.246Z,10.53
2022-12-07T23:25:28.891Z,10.87
2022-12-07T23:27:58.053Z,11.27
2022-12-07T23:30:27.187Z,11.00
2022-12-07T23:32:56.365Z,10.87
2022-12-07T23:35:25.362Z,10.23
2022-12-07T23:37:54.433Z,10.33
2022-12-07T23:40:23.443Z,10.53
2022-12-07T23:42:53.935Z,9.37
2022-12-07T23:45:23.188Z,9.57
2022-12-07T23:47:52.180Z,9.70
2022-12-07T23:50:21.287Z,9.47
2022-12-07T23:52:50.476Z,9.20
2022-12-07T23:55:19.780Z,9.53
2022-12-07T23:57:48.818Z,9.47
